Aérodrome :
LOGIN :

S'inscrire | Disclaimer

   EN    FR    IT 

 










Légende :    VFR   VFR Marginal   IFR   IFR Intensif   IFR Très Intensif
Visi : 
Plafond : 
>= 8 km
>= 3000ft
5 à 8 km
1000 à 3000 ft
1500m à 5 km
500 à 1000 ft
800 à 1500m
200 à 500 ft
< 800m
< 200 ft
Symboles :   Orages  Brouillard  Fortes neiges  Fortes précipitations  Vent > 20 kt
SIGMETs :   Divers  Orages  Givrage  Turbulence  Onde Orograph.  Cendres Volcan.






- Altitude de l'aérodrome : 11 ft
- Code IATA : PVK


LGPZ - Aktion Lefkada Preveza

DERNIER METAR :
  • 240450Z 28009KT 9999 FEW020 16/12 Q1009

METARs EXPIRÉS :
  • 240420Z 28008KT 9999 FEW015 15/12 Q1009
  • 240350Z 28011KT 9999 FEW015 15/12 Q1009 RMK FEW020 BLU
  • 240320Z 27012KT 9999 FEW015 16/13 Q1008
  • 240250Z 27012KT 9999 FEW015 16/13 Q1008 RMK FEW020 BLU
  • 240150Z 28012KT 9999 SCT015 16/12 Q1008
  • 240050Z 28014KT 9999 FEW015 15/12 Q1008
  • 232350Z 29018KT 9999 FEW015 16/12 Q1008 RMK FEW020 BLU

TAF TAF LGPZ
Valide du 24 à 00h jusqu'au 25 à 00h UTC


232300Z 2400/2424 28012KT 7000 FEW025 SCT070
TEMPO 2400/2404 29014G24KT
BECMG 2408/2410 FEW020



MET'MAP, la Météo Aéronautique d'un coup d'oeil ! - Copyright ORBIFLY Décembre 2007 - Disclaimer

ORBIFLY MET'MAP TEAM :

Programmation & Développement : Alexandra Zaïnal
Sur une idée originale de : Baudouin d'Aumeries
Soutien technique & logistique : Manuel Goepfert
Assistance : Marc-Olivier Méhu




SOURCES & CREDITS :

   NOAA